sensor_id;sensor_type;location;lat;lon;timestamp;pressure;altitude;pressure_sealevel;temperature;humidity
75497;BME280;64074;47.540;19.072;2023-04-02T00:00:18;99531.09;;;10.64;63.21
75497;BME280;64074;47.540;19.072;2023-04-02T00:03:21;99547.25;;;10.77;63.25
75497;BME280;64074;47.540;19.072;2023-04-02T00:09:35;99550.59;;;10.74;63.31
75497;BME280;64074;47.540;19.072;2023-04-02T00:12:39;99558.41;;;10.85;63.20
75497;BME280;64074;47.540;19.072;2023-04-02T00:15:45;99553.31;;;10.83;63.32
75497;BME280;64074;47.540;19.072;2023-04-02T00:18:51;99559.84;;;10.73;63.64
75497;BME280;64074;47.540;19.072;2023-04-02T00:21:56;99560.03;;;10.94;63.18
75497;BME280;64074;47.540;19.072;2023-04-02T00:25:02;99564.84;;;11.06;63.04
75497;BME280;64074;47.540;19.072;2023-04-02T00:28:18;99568.50;;;11.10;62.59
75497;BME280;64074;47.540;19.072;2023-04-02T00:31:21;99561.00;;;11.07;62.14
75497;BME280;64074;47.540;19.072;2023-04-02T00:34:29;99564.03;;;11.14;62.04
75497;BME280;64074;47.540;19.072;2023-04-02T00:37:35;99560.03;;;10.94;62.57
75497;BME280;64074;47.540;19.072;2023-04-02T00:40:41;99562.28;;;11.09;62.23
75497;BME280;64074;47.540;19.072;2023-04-02T00:43:45;99560.97;;;10.90;62.81
75497;BME280;64074;47.540;19.072;2023-04-02T00:46:49;99572.34;;;11.09;62.35
75497;BME280;64074;47.540;19.072;2023-04-02T00:49:58;99566.63;;;11.19;62.44
75497;BME280;64074;47.540;19.072;2023-04-02T00:53:08;99571.84;;;10.98;62.71
75497;BME280;64074;47.540;19.072;2023-04-02T00:56:18;99575.69;;;10.97;63.06
75497;BME280;64074;47.540;19.072;2023-04-02T01:00:13;99573.72;;;10.89;63.38
75497;BME280;64074;47.540;19.072;2023-04-02T01:06:19;99570.53;;;10.87;63.16
75497;BME280;64074;47.540;19.072;2023-04-02T01:09:54;99571.31;;;10.70;63.98
75497;BME280;64074;47.540;19.072;2023-04-02T01:13:21;99577.78;;;10.52;64.50
75497;BME280;64074;47.540;19.072;2023-04-02T01:27:00;99583.69;;;10.63;64.53
75497;BME280;64074;47.540;19.072;2023-04-02T01:30:04;99577.69;;;10.35;65.09
75497;BME280;64074;47.540;19.072;2023-04-02T01:33:10;99569.47;;;10.48;64.79
75497;BME280;64074;47.540;19.072;2023-04-02T01:43:09;99578.41;;;10.49;64.94
75497;BME280;64074;47.540;19.072;2023-04-02T01:46:29;99578.75;;;10.65;64.63
75497;BME280;64074;47.540;19.072;2023-04-02T01:49:33;99580.88;;;10.68;64.71
75497;BME280;64074;47.540;19.072;2023-04-02T01:52:39;99593.63;;;10.36;65.25
75497;BME280;64074;47.540;19.072;2023-04-02T01:55:53;99593.25;;;10.60;64.58
75497;BME280;64074;47.540;19.072;2023-04-02T01:58:57;99594.00;;;10.43;65.16
75497;BME280;64074;47.540;19.072;2023-04-02T02:02:05;99595.03;;;10.65;64.17
75497;BME280;64074;47.540;19.072;2023-04-02T02:05:14;99602.81;;;10.58;64.55
75497;BME280;64074;47.540;19.072;2023-04-02T02:11:33;99601.78;;;10.76;63.99
75497;BME280;64074;47.540;19.072;2023-04-02T02:14:45;99602.38;;;10.64;64.44
75497;BME280;64074;47.540;19.072;2023-04-02T02:17:56;99600.66;;;10.77;64.02
75497;BME280;64074;47.540;19.072;2023-04-02T02:21:03;99605.28;;;10.76;63.96
75497;BME280;64074;47.540;19.072;2023-04-02T02:24:23;99603.78;;;10.62;64.38
75497;BME280;64074;47.540;19.072;2023-04-02T02:30:52;99607.03;;;10.72;64.31
75497;BME280;64074;47.540;19.072;2023-04-02T02:34:02;99599.66;;;10.64;64.66
75497;BME280;64074;47.540;19.072;2023-04-02T02:37:14;99599.13;;;10.45;65.25
75497;BME280;64074;47.540;19.072;2023-04-02T02:40:26;99603.91;;;10.48;65.03
75497;BME280;64074;47.540;19.072;2023-04-02T02:43:32;99603.69;;;10.75;64.11
75497;BME280;64074;47.540;19.072;2023-04-02T02:46:39;99605.22;;;10.59;64.72
75497;BME280;64074;47.540;19.072;2023-04-02T02:49:48;99600.22;;;10.44;65.32
75497;BME280;64074;47.540;19.072;2023-04-02T02:52:57;99608.06;;;10.54;65.49
75497;BME280;64074;47.540;19.072;2023-04-02T02:56:04;99601.72;;;10.59;64.91
75497;BME280;64074;47.540;19.072;2023-04-02T02:59:13;99602.97;;;10.53;65.31
75497;BME280;64074;47.540;19.072;2023-04-02T03:02:19;99600.75;;;10.63;64.94
75497;BME280;64074;47.540;19.072;2023-04-02T03:05:23;99596.34;;;10.76;64.80
75497;BME280;64074;47.540;19.072;2023-04-02T03:09:15;99596.94;;;10.25;65.78
75497;BME280;64074;47.540;19.072;2023-04-02T03:19:16;99602.84;;;9.82;67.93
75497;BME280;64074;47.540;19.072;2023-04-02T03:22:45;99610.00;;;10.23;66.25
75497;BME280;64074;47.540;19.072;2023-04-02T03:29:21;99613.84;;;10.30;66.39
75497;BME280;64074;47.540;19.072;2023-04-02T03:32:30;99613.81;;;9.99;67.46
75497;BME280;64074;47.540;19.072;2023-04-02T03:39:08;99619.44;;;10.11;67.11
75497;BME280;64074;47.540;19.072;2023-04-02T03:42:18;99613.03;;;9.76;68.89
75497;BME280;64074;47.540;19.072;2023-04-02T03:45:31;99613.19;;;10.02;67.85
75497;BME280;64074;47.540;19.072;2023-04-02T03:48:41;99610.69;;;10.14;67.10
75497;BME280;64074;47.540;19.072;2023-04-02T03:52:04;99614.22;;;10.15;67.03
75497;BME280;64074;47.540;19.072;2023-04-02T03:55:12;99622.78;;;10.08;67.43
75497;BME280;64074;47.540;19.072;2023-04-02T03:58:38;99629.19;;;10.12;67.71
75497;BME280;64074;47.540;19.072;2023-04-02T04:02:15;99630.78;;;10.13;67.47
75497;BME280;64074;47.540;19.072;2023-04-02T04:05:33;99632.69;;;10.35;66.32
75497;BME280;64074;47.540;19.072;2023-04-02T04:08:57;99641.81;;;9.95;67.78
75497;BME280;64074;47.540;19.072;2023-04-02T04:12:18;99643.03;;;10.11;67.67
75497;BME280;64074;47.540;19.072;2023-04-02T04:15:36;99651.31;;;10.28;66.95
75497;BME280;64074;47.540;19.072;2023-04-02T04:18:52;99651.63;;;10.27;67.19
75497;BME280;64074;47.540;19.072;2023-04-02T04:22:17;99656.09;;;10.31;66.57
75497;BME280;64074;47.540;19.072;2023-04-02T04:25:27;99655.63;;;10.15;67.10
75497;BME280;64074;47.540;19.072;2023-04-02T04:28:58;99655.44;;;10.26;67.24
75497;BME280;64074;47.540;19.072;2023-04-02T04:32:28;99663.28;;;10.13;67.46
75497;BME280;64074;47.540;19.072;2023-04-02T04:35:55;99665.13;;;10.04;67.82
75497;BME280;64074;47.540;19.072;2023-04-02T04:39:16;99663.09;;;9.87;68.24
75497;BME280;64074;47.540;19.072;2023-04-02T04:42:29;99661.16;;;9.66;68.94
75497;BME280;64074;47.540;19.072;2023-04-02T04:45:48;99650.78;;;9.81;68.71
75497;BME280;64074;47.540;19.072;2023-04-02T04:55:27;99657.31;;;10.03;68.36
75497;BME280;64074;47.540;19.072;2023-04-02T04:58:46;99659.09;;;9.85;68.89
75497;BME280;64074;47.540;19.072;2023-04-02T05:02:00;99655.72;;;10.02;67.85
75497;BME280;64074;47.540;19.072;2023-04-02T05:05:19;99661.06;;;10.38;67.18
75497;BME280;64074;47.540;19.072;2023-04-02T05:08:30;99660.34;;;10.46;66.94
75497;BME280;64074;47.540;19.072;2023-04-02T05:11:44;99666.06;;;10.44;66.65
75497;BME280;64074;47.540;19.072;2023-04-02T05:15:29;99672.03;;;10.64;66.39
75497;BME280;64074;47.540;19.072;2023-04-02T05:18:42;99670.59;;;10.97;65.16
75497;BME280;64074;47.540;19.072;2023-04-02T05:22:21;99685.06;;;10.84;65.36
75497;BME280;64074;47.540;19.072;2023-04-02T05:25:29;99681.00;;;11.04;64.72
75497;BME280;64074;47.540;19.072;2023-04-02T05:28:42;99681.06;;;11.21;64.30
75497;BME280;64074;47.540;19.072;2023-04-02T05:32:08;99679.06;;;10.96;64.61
75497;BME280;64074;47.540;19.072;2023-04-02T05:35:17;99683.63;;;11.26;63.99
75497;BME280;64074;47.540;19.072;2023-04-02T05:38:28;99690.97;;;11.34;63.49
75497;BME280;64074;47.540;19.072;2023-04-02T05:41:43;99683.41;;;11.14;64.31
75497;BME280;64074;47.540;19.072;2023-04-02T05:45:20;99694.25;;;11.05;64.29
75497;BME280;64074;47.540;19.072;2023-04-02T05:48:35;99703.56;;;11.22;63.33
75497;BME280;64074;47.540;19.072;2023-04-02T05:51:43;99700.53;;;11.32;63.81
75497;BME280;64074;47.540;19.072;2023-04-02T05:54:57;99700.94;;;10.99;64.61
75497;BME280;64074;47.540;19.072;2023-04-02T05:58:05;99705.19;;;11.40;63.82
75497;BME280;64074;47.540;19.072;2023-04-02T06:01:47;99709.56;;;11.10;64.61
75497;BME280;64074;47.540;19.072;2023-04-02T06:05:06;99720.91;;;11.12;64.46
75497;BME280;64074;47.540;19.072;2023-04-02T06:11:38;99724.09;;;11.14;64.51
75497;BME280;64074;47.540;19.072;2023-04-02T06:14:46;99724.06;;;11.45;63.42
75497;BME280;64074;47.540;19.072;2023-04-02T06:20:55;99703.81;;;11.77;62.32
75497;BME280;64074;47.540;19.072;2023-04-02T06:24:01;99717.91;;;11.88;62.37
75497;BME280;64074;47.540;19.072;2023-04-02T06:27:12;99715.38;;;11.91;62.05
75497;BME280;64074;47.540;19.072;2023-04-02T06:30:26;99713.25;;;12.40;61.00
75497;BME280;64074;47.540;19.072;2023-04-02T06:33:32;99713.59;;;12.21;61.74
75497;BME280;64074;47.540;19.072;2023-04-02T06:36:34;99708.31;;;12.08;61.49
75497;BME280;64074;47.540;19.072;2023-04-02T06:39:41;99721.28;;;12.19;61.56
75497;BME280;64074;47.540;19.072;2023-04-02T06:42:45;99744.28;;;12.05;61.41
75497;BME280;64074;47.540;19.072;2023-04-02T06:46:31;99726.69;;;12.28;60.94
75497;BME280;64074;47.540;19.072;2023-04-02T06:50:07;99730.41;;;12.15;60.70
75497;BME280;64074;47.540;19.072;2023-04-02T06:53:18;99735.31;;;12.47;60.28
75497;BME280;64074;47.540;19.072;2023-04-02T06:59:36;99736.56;;;13.14;58.43
75497;BME280;64074;47.540;19.072;2023-04-02T07:02:44;99728.22;;;13.10;58.27
75497;BME280;64074;47.540;19.072;2023-04-02T07:05:48;99733.31;;;13.29;58.23
75497;BME280;64074;47.540;19.072;2023-04-02T07:08:51;99734.22;;;13.42;56.62
75497;BME280;64074;47.540;19.072;2023-04-02T07:11:56;99742.13;;;13.26;57.22
75497;BME280;64074;47.540;19.072;2023-04-02T07:15:00;99733.63;;;13.28;58.14
75497;BME280;64074;47.540;19.072;2023-04-02T07:18:03;99736.47;;;13.40;57.10
75497;BME280;64074;47.540;19.072;2023-04-02T07:21:08;99758.81;;;13.24;58.13
75497;BME280;64074;47.540;19.072;2023-04-02T07:24:11;99742.28;;;12.74;59.20
75497;BME280;64074;47.540;19.072;2023-04-02T07:27:14;99737.31;;;13.32;58.10
75497;BME280;64074;47.540;19.072;2023-04-02T07:30:18;99745.59;;;12.88;59.09
75497;BME280;64074;47.540;19.072;2023-04-02T07:33:26;99757.53;;;13.22;58.59
75497;BME280;64074;47.540;19.072;2023-04-02T07:36:30;99749.94;;;12.89;58.62
75497;BME280;64074;47.540;19.072;2023-04-02T07:39:34;99754.94;;;13.26;58.65
75497;BME280;64074;47.540;19.072;2023-04-02T07:42:40;99767.19;;;13.02;59.37
75497;BME280;64074;47.540;19.072;2023-04-02T07:45:43;99759.38;;;13.68;56.89
75497;BME280;64074;47.540;19.072;2023-04-02T07:48:46;99772.91;;;13.56;56.48
75497;BME280;64074;47.540;19.072;2023-04-02T07:51:50;99780.31;;;13.47;56.75
75497;BME280;64074;47.540;19.072;2023-04-02T07:54:54;99778.47;;;13.89;56.82
75497;BME280;64074;47.540;19.072;2023-04-02T07:57:57;99780.19;;;13.35;57.90
75497;BME280;64074;47.540;19.072;2023-04-02T08:01:01;99778.94;;;13.62;57.13
75497;BME280;64074;47.540;19.072;2023-04-02T08:04:17;99770.03;;;13.52;57.89
75497;BME280;64074;47.540;19.072;2023-04-02T08:07:20;99776.63;;;14.02;56.44
75497;BME280;64074;47.540;19.072;2023-04-02T08:10:23;99779.81;;;14.25;56.38
75497;BME280;64074;47.540;19.072;2023-04-02T08:13:26;99781.53;;;14.29;55.67
75497;BME280;64074;47.540;19.072;2023-04-02T08:17:05;99791.13;;;13.94;56.60
75497;BME280;64074;47.540;19.072;2023-04-02T08:20:18;99788.06;;;14.16;56.45
75497;BME280;64074;47.540;19.072;2023-04-02T08:23:21;99795.63;;;13.90;56.61
75497;BME280;64074;47.540;19.072;2023-04-02T08:26:24;99795.28;;;14.33;56.18
75497;BME280;64074;47.540;19.072;2023-04-02T08:29:28;99797.03;;;14.37;55.63
75497;BME280;64074;47.540;19.072;2023-04-02T08:32:34;99799.75;;;14.37;55.83
75497;BME280;64074;47.540;19.072;2023-04-02T08:35:37;99805.47;;;14.24;55.63
75497;BME280;64074;47.540;19.072;2023-04-02T08:38:41;99813.97;;;14.01;56.44
75497;BME280;64074;47.540;19.072;2023-04-02T08:41:53;99818.03;;;14.45;55.63
75497;BME280;64074;47.540;19.072;2023-04-02T08:45:22;99800.91;;;14.57;54.91
75497;BME280;64074;47.540;19.072;2023-04-02T08:48:30;99811.00;;;15.23;53.21
75497;BME280;64074;47.540;19.072;2023-04-02T08:51:35;99801.69;;;15.48;53.32
75497;BME280;64074;47.540;19.072;2023-04-02T08:54:38;99815.91;;;15.54;53.15
75497;BME280;64074;47.540;19.072;2023-04-02T09:04:57;99819.44;;;15.42;53.20
75497;BME280;64074;47.540;19.072;2023-04-02T09:08:03;99818.06;;;14.58;55.16
75497;BME280;64074;47.540;19.072;2023-04-02T09:11:48;99812.94;;;15.22;53.61
75497;BME280;64074;47.540;19.072;2023-04-02T09:18:15;99819.66;;;14.59;55.61
75497;BME280;64074;47.540;19.072;2023-04-02T09:24:32;99825.25;;;14.95;55.11
75497;BME280;64074;47.540;19.072;2023-04-02T09:27:35;99822.38;;;14.59;55.70
75497;BME280;64074;47.540;19.072;2023-04-02T09:33:56;99821.72;;;14.62;55.51
75497;BME280;64074;47.540;19.072;2023-04-02T09:37:19;99828.84;;;14.54;55.80
75497;BME280;64074;47.540;19.072;2023-04-02T09:40:30;99845.34;;;14.58;55.16
75497;BME280;64074;47.540;19.072;2023-04-02T09:43:35;99848.28;;;14.53;55.63
75497;BME280;64074;47.540;19.072;2023-04-02T09:53:33;99831.56;;;15.65;53.46
75497;BME280;64074;47.540;19.072;2023-04-02T09:56:39;99848.16;;;15.60;53.11
75497;BME280;64074;47.540;19.072;2023-04-02T09:59:43;99841.41;;;15.58;53.45
75497;BME280;64074;47.540;19.072;2023-04-02T10:03:02;99847.16;;;15.65;53.43
75497;BME280;64074;47.540;19.072;2023-04-02T10:06:09;99851.66;;;15.49;52.41
75497;BME280;64074;47.540;19.072;2023-04-02T10:09:26;99855.03;;;15.21;53.68
75497;BME280;64074;47.540;19.072;2023-04-02T10:12:39;99846.31;;;15.52;52.87
75497;BME280;64074;47.540;19.072;2023-04-02T10:19:17;99848.69;;;15.54;52.50
75497;BME280;64074;47.540;19.072;2023-04-02T10:22:27;99851.63;;;15.36;52.34
75497;BME280;64074;47.540;19.072;2023-04-02T10:25:35;99842.69;;;15.60;52.56
75497;BME280;64074;47.540;19.072;2023-04-02T10:29:07;99849.84;;;14.95;54.31
75497;BME280;64074;47.540;19.072;2023-04-02T10:32:20;99844.28;;;15.86;52.16
75497;BME280;64074;47.540;19.072;2023-04-02T10:39:01;99845.09;;;15.74;51.79
75497;BME280;64074;47.540;19.072;2023-04-02T10:42:14;99840.88;;;16.01;52.08
75497;BME280;64074;47.540;19.072;2023-04-02T10:45:41;99841.44;;;16.07;50.87
75497;BME280;64074;47.540;19.072;2023-04-02T10:52:17;99835.41;;;16.01;50.59
75497;BME280;64074;47.540;19.072;2023-04-02T10:55:25;99842.81;;;15.76;51.99
75497;BME280;64074;47.540;19.072;2023-04-02T10:58:30;99828.06;;;16.29;51.51
75497;BME280;64074;47.540;19.072;2023-04-02T11:01:38;99835.72;;;16.24;50.39
75497;BME280;64074;47.540;19.072;2023-04-02T11:04:45;99835.50;;;16.57;50.02
75497;BME280;64074;47.540;19.072;2023-04-02T11:11:40;99833.13;;;16.15;47.81
75497;BME280;64074;47.540;19.072;2023-04-02T11:14:44;99832.13;;;16.36;47.75
75497;BME280;64074;47.540;19.072;2023-04-02T11:17:47;99831.38;;;16.63;47.29
75497;BME280;64074;47.540;19.072;2023-04-02T11:20:59;99845.53;;;16.13;47.80
75497;BME280;64074;47.540;19.072;2023-04-02T11:24:03;99819.75;;;16.26;47.88
75497;BME280;64074;47.540;19.072;2023-04-02T11:30:25;99830.34;;;16.27;46.30
75497;BME280;64074;47.540;19.072;2023-04-02T11:39:54;99813.41;;;16.50;46.56
75497;BME280;64074;47.540;19.072;2023-04-02T11:46:39;99819.53;;;17.15;43.18
75497;BME280;64074;47.540;19.072;2023-04-02T11:53:19;99807.75;;;17.30;46.14
75497;BME280;64074;47.540;19.072;2023-04-02T11:56:46;99818.03;;;16.74;46.04
75497;BME280;64074;47.540;19.072;2023-04-02T12:09:52;99800.78;;;17.64;42.99
75497;BME280;64074;47.540;19.072;2023-04-02T12:12:59;99802.69;;;18.11;41.88
75497;BME280;64074;47.540;19.072;2023-04-02T12:16:02;99798.66;;;17.73;43.02
75497;BME280;64074;47.540;19.072;2023-04-02T12:19:08;99800.91;;;18.03;42.83
75497;BME280;64074;47.540;19.072;2023-04-02T12:22:19;99791.69;;;17.76;42.63
75497;BME280;64074;47.540;19.072;2023-04-02T12:25:32;99793.06;;;18.21;43.32
75497;BME280;64074;47.540;19.072;2023-04-02T12:28:36;99780.84;;;19.18;41.11
75497;BME280;64074;47.540;19.072;2023-04-02T12:31:46;99787.97;;;18.77;43.17
75497;BME280;64074;47.540;19.072;2023-04-02T12:34:51;99785.34;;;17.40;45.86
75497;BME280;64074;47.540;19.072;2023-04-02T12:37:55;99784.22;;;18.66;43.09
75497;BME280;64074;47.540;19.072;2023-04-02T12:41:01;99777.38;;;19.44;40.19
75497;BME280;64074;47.540;19.072;2023-04-02T12:44:17;99783.53;;;20.43;37.87
75497;BME280;64074;47.540;19.072;2023-04-02T12:47:20;99782.22;;;21.45;35.04
75497;BME280;64074;47.540;19.072;2023-04-02T12:50:23;99771.13;;;21.89;35.29
75497;BME280;64074;47.540;19.072;2023-04-02T12:53:34;99778.84;;;19.87;38.83
75497;BME280;64074;47.540;19.072;2023-04-02T12:56:38;99771.16;;;21.01;37.19
75497;BME280;64074;47.540;19.072;2023-04-02T12:59:41;99769.13;;;21.83;35.47
75497;BME280;64074;47.540;19.072;2023-04-02T13:02:47;99769.75;;;21.17;36.63
75497;BME280;64074;47.540;19.072;2023-04-02T13:05:55;99770.03;;;22.04;34.92
75497;BME280;64074;47.540;19.072;2023-04-02T13:09:00;99781.91;;;21.09;36.56
75497;BME280;64074;47.540;19.072;2023-04-02T13:12:31;99787.75;;;21.45;35.91
75497;BME280;64074;47.540;19.072;2023-04-02T13:15:35;99792.94;;;22.08;35.23
75497;BME280;64074;47.540;19.072;2023-04-02T13:18:38;99779.66;;;21.70;35.10
75497;BME280;64074;47.540;19.072;2023-04-02T13:21:43;99764.00;;;22.75;33.55
75497;BME280;64074;47.540;19.072;2023-04-02T13:24:47;99769.63;;;23.39;32.42
75497;BME280;64074;47.540;19.072;2023-04-02T13:27:50;99773.63;;;23.63;31.01
75497;BME280;64074;47.540;19.072;2023-04-02T13:30:55;99770.38;;;24.07;30.96
75497;BME280;64074;47.540;19.072;2023-04-02T13:33:58;99778.72;;;23.86;30.66
75497;BME280;64074;47.540;19.072;2023-04-02T13:37:02;99777.50;;;22.87;31.38
75497;BME280;64074;47.540;19.072;2023-04-02T13:40:06;99779.72;;;20.88;34.50
75497;BME280;64074;47.540;19.072;2023-04-02T13:43:18;99795.13;;;20.93;34.30
75497;BME280;64074;47.540;19.072;2023-04-02T13:46:26;99778.31;;;23.84;30.51
75497;BME280;64074;47.540;19.072;2023-04-02T13:49:30;99778.28;;;24.02;28.94
75497;BME280;64074;47.540;19.072;2023-04-02T13:52:33;99779.13;;;23.67;29.20
75497;BME280;64074;47.540;19.072;2023-04-02T13:55:38;99769.56;;;24.03;28.64
75497;BME280;64074;47.540;19.072;2023-04-02T13:58:44;99771.19;;;23.54;29.80
75497;BME280;64074;47.540;19.072;2023-04-02T14:01:48;99760.13;;;23.86;29.47
75497;BME280;64074;47.540;19.072;2023-04-02T14:05:25;99766.50;;;23.58;29.59
75497;BME280;64074;47.540;19.072;2023-04-02T14:08:58;99769.50;;;24.21;28.69
75497;BME280;64074;47.540;19.072;2023-04-02T14:22:28;99780.72;;;23.82;29.90
75497;BME280;64074;47.540;19.072;2023-04-02T14:36:34;99815.47;;;21.59;34.81
75497;BME280;64074;47.540;19.072;2023-04-02T14:46:27;99831.84;;;18.73;40.62
75497;BME280;64074;47.540;19.072;2023-04-02T14:49:37;99849.56;;;16.83;44.54
75497;BME280;64074;47.540;19.072;2023-04-02T14:52:46;99870.44;;;16.36;47.05
75497;BME280;64074;47.540;19.072;2023-04-02T14:55:55;99869.81;;;15.65;48.92
75497;BME280;64074;47.540;19.072;2023-04-02T14:59:18;99865.78;;;15.05;51.15
75497;BME280;64074;47.540;19.072;2023-04-02T15:02:37;99880.47;;;14.80;53.22
75497;BME280;64074;47.540;19.072;2023-04-02T15:05:56;99878.47;;;14.89;54.56
75497;BME280;64074;47.540;19.072;2023-04-02T15:09:15;99896.59;;;14.52;56.83
75497;BME280;64074;47.540;19.072;2023-04-02T15:12:23;99903.06;;;14.09;58.54
75497;BME280;64074;47.540;19.072;2023-04-02T15:15:46;99911.41;;;14.13;58.92
75497;BME280;64074;47.540;19.072;2023-04-02T15:18:52;99910.97;;;14.02;60.52
75497;BME280;64074;47.540;19.072;2023-04-02T15:22:10;99935.78;;;14.09;63.53
75497;BME280;64074;47.540;19.072;2023-04-02T15:25:30;99934.28;;;13.36;66.06
75497;BME280;64074;47.540;19.072;2023-04-02T15:28:42;99926.75;;;13.33;66.45
75497;BME280;64074;47.540;19.072;2023-04-02T15:31:50;99918.50;;;13.67;66.55
75497;BME280;64074;47.540;19.072;2023-04-02T15:35:04;99923.91;;;13.20;64.36
75497;BME280;64074;47.540;19.072;2023-04-02T15:38:22;99918.94;;;13.14;63.94
75497;BME280;64074;47.540;19.072;2023-04-02T15:41:51;99917.84;;;13.70;67.54
75497;BME280;64074;47.540;19.072;2023-04-02T15:45:16;99914.34;;;13.99;66.26
75497;BME280;64074;47.540;19.072;2023-04-02T15:55:13;99901.56;;;14.50;62.88
75497;BME280;64074;47.540;19.072;2023-04-02T15:58:25;99896.78;;;14.47;65.19
75497;BME280;64074;47.540;19.072;2023-04-02T16:01:57;99895.13;;;14.75;64.07
75497;BME280;64074;47.540;19.072;2023-04-02T16:08:25;99895.31;;;14.70;68.06
75497;BME280;64074;47.540;19.072;2023-04-02T16:11:30;99894.19;;;14.92;65.83
75497;BME280;64074;47.540;19.072;2023-04-02T16:14:47;99902.25;;;15.22;64.71
75497;BME280;64074;47.540;19.072;2023-04-02T16:17:57;99907.66;;;15.43;64.42
75497;BME280;64074;47.540;19.072;2023-04-02T16:21:03;99908.94;;;15.57;61.16
75497;BME280;64074;47.540;19.072;2023-04-02T16:24:12;99904.81;;;15.06;62.71
75497;BME280;64074;47.540;19.072;2023-04-02T16:27:27;99916.88;;;14.84;62.34
75497;BME280;64074;47.540;19.072;2023-04-02T16:51:13;99959.28;;;15.02;65.52
75497;BME280;64074;47.540;19.072;2023-04-02T17:00:50;99965.09;;;14.21;65.66
75497;BME280;64074;47.540;19.072;2023-04-02T17:10:58;99983.25;;;14.08;61.54
75497;BME280;64074;47.540;19.072;2023-04-02T17:15:00;99991.94;;;13.29;56.84
75497;BME280;64074;47.540;19.072;2023-04-02T17:17:37;99991.75;;;13.51;57.01
75497;BME280;64074;47.540;19.072;2023-04-02T17:20:41;100002.97;;;12.98;57.27
75497;BME280;64074;47.540;19.072;2023-04-02T17:23:48;99993.84;;;12.94;56.83
75497;BME280;64074;47.540;19.072;2023-04-02T17:26:59;99997.69;;;13.02;57.04
75497;BME280;64074;47.540;19.072;2023-04-02T17:30:15;100009.84;;;12.78;56.50
75497;BME280;64074;47.540;19.072;2023-04-02T17:33:18;100011.59;;;12.66;56.41
75497;BME280;64074;47.540;19.072;2023-04-02T17:36:44;100007.59;;;12.23;55.02
75497;BME280;64074;47.540;19.072;2023-04-02T17:40:16;100022.22;;;12.05;54.03
75497;BME280;64074;47.540;19.072;2023-04-02T17:43:39;100023.31;;;11.95;55.36
75497;BME280;64074;47.540;19.072;2023-04-02T17:51:18;100034.44;;;12.16;54.61
75497;BME280;64074;47.540;19.072;2023-04-02T17:57:40;100048.81;;;11.86;54.39
75497;BME280;64074;47.540;19.072;2023-04-02T18:17:40;100076.97;;;10.82;55.13
75497;BME280;64074;47.540;19.072;2023-04-02T18:27:51;100101.38;;;10.54;55.17
75497;BME280;64074;47.540;19.072;2023-04-02T18:31:06;100114.94;;;10.54;55.91
75497;BME280;64074;47.540;19.072;2023-04-02T18:34:30;100118.19;;;10.70;55.64
75497;BME280;64074;47.540;19.072;2023-04-02T18:37:58;100123.13;;;10.22;55.99
75497;BME280;64074;47.540;19.072;2023-04-02T18:41:22;100126.97;;;10.34;55.32
75497;BME280;64074;47.540;19.072;2023-04-02T18:51:02;100149.53;;;9.97;56.51
75497;BME280;64074;47.540;19.072;2023-04-02T18:57:16;100160.25;;;10.21;56.20
75497;BME280;64074;47.540;19.072;2023-04-02T19:00:28;100156.47;;;9.84;56.33
75497;BME280;64074;47.540;19.072;2023-04-02T19:03:51;100169.19;;;10.03;56.57
75497;BME280;64074;47.540;19.072;2023-04-02T19:07:16;100175.22;;;9.43;57.41
75497;BME280;64074;47.540;19.072;2023-04-02T19:10:42;100179.59;;;9.39;57.30
75497;BME280;64074;47.540;19.072;2023-04-02T19:13:45;100182.53;;;9.43;58.22
75497;BME280;64074;47.540;19.072;2023-04-02T19:23:50;100177.94;;;9.43;57.85
75497;BME280;64074;47.540;19.072;2023-04-02T19:27:05;100191.28;;;9.35;57.13
75497;BME280;64074;47.540;19.072;2023-04-02T19:30:37;100205.69;;;9.30;57.50
75497;BME280;64074;47.540;19.072;2023-04-02T19:37:25;100204.91;;;9.06;58.25
75497;BME280;64074;47.540;19.072;2023-04-02T19:40:58;100207.91;;;9.04;57.39
75497;BME280;64074;47.540;19.072;2023-04-02T19:44:09;100216.66;;;8.96;58.16
75497;BME280;64074;47.540;19.072;2023-04-02T19:47:16;100223.91;;;9.01;57.71
75497;BME280;64074;47.540;19.072;2023-04-02T19:50:20;100226.19;;;8.88;58.34
75497;BME280;64074;47.540;19.072;2023-04-02T19:53:24;100227.25;;;8.92;58.17
75497;BME280;64074;47.540;19.072;2023-04-02T19:56:27;100235.88;;;8.66;57.99
75497;BME280;64074;47.540;19.072;2023-04-02T19:59:31;100239.63;;;8.70;58.16
75497;BME280;64074;47.540;19.072;2023-04-02T20:02:35;100240.03;;;8.82;57.12
75497;BME280;64074;47.540;19.072;2023-04-02T20:05:38;100245.31;;;8.97;57.53
75497;BME280;64074;47.540;19.072;2023-04-02T20:08:41;100250.00;;;9.10;57.07
75497;BME280;64074;47.540;19.072;2023-04-02T20:11:44;100264.41;;;9.06;57.62
75497;BME280;64074;47.540;19.072;2023-04-02T20:14:48;100265.56;;;9.00;57.16
75497;BME280;64074;47.540;19.072;2023-04-02T20:17:51;100265.28;;;8.72;58.24
75497;BME280;64074;47.540;19.072;2023-04-02T20:20:54;100280.47;;;8.92;57.62
75497;BME280;64074;47.540;19.072;2023-04-02T20:23:57;100281.78;;;9.00;56.82
75497;BME280;64074;47.540;19.072;2023-04-02T20:27:00;100284.66;;;9.08;56.62
75497;BME280;64074;47.540;19.072;2023-04-02T20:30:03;100288.75;;;8.77;57.69
75497;BME280;64074;47.540;19.072;2023-04-02T20:33:06;100293.41;;;9.00;57.41
75497;BME280;64074;47.540;19.072;2023-04-02T20:36:11;100289.91;;;8.66;57.42
75497;BME280;64074;47.540;19.072;2023-04-02T20:39:14;100294.63;;;8.84;57.08
75497;BME280;64074;47.540;19.072;2023-04-02T20:42:20;100291.06;;;8.88;56.76
75497;BME280;64074;47.540;19.072;2023-04-02T20:45:24;100305.00;;;8.38;58.08
75497;BME280;64074;47.540;19.072;2023-04-02T20:48:30;100312.13;;;8.91;57.66